Rechercher aéroport 
image banner adimage banner adimage banner ad
image banner ad

CA35 - San Rafael

Situé à San Rafael, United States

ICAO - CA35, IATA -

Données fournies par Airmate  

Information générale

Coordonnées: N38°1'1" W122°31'15"
Élévation : 5 feet MSL.
Variation magnétique : 16° East
Voir autres Aéroports à California

Données opérationnelles

Special qualification required
Heure actuelle UTC:
Heure actuelle locale:
Météo à : KDVO - Gnoss Field ( 14 km )
METAR: KDVO 212235Z AUTO 15005KT 10SM CLR 35/06 A3003 RMK AO2
Voir NOTAMs / SUP AIP / TFR affectant cet aéroport [VIEW]
Fréquences de communication: [VIEW]

Pistes:

Identifiant RWYQFULongueur (ft)Largeur (ft)SurfaceLDA (ft)
04270030ASPH
22270030ASPH

Coordonnées de l'aéroport

Adresse: San Rafael United States

Vue satellite de CA35